Time;durP1;ratioP1;P1;durP2;ratioP2;P2;SDS_P1;SDS_P2;PMS_P1;PMS_P2;Temp;Humidity;BMP_temperature;BMP_pressure;BME280_temperature;BME280_humidity;BME280_pressure;Samples;Min_cycle;Max_cycle;Signal;HPM_P1;HPM_P2
2023/03/06 00:00:58;;;;;;;26.87;11.13;;;-1.50;99.90;;;;;;4399833;28;660262;-72
2023/03/06 00:03:46;;;;;;;22.70;9.47;;;-1.50;99.90;;;;;;4399174;28;660318;-72
2023/03/06 00:06:33;;;;;;;19.05;9.52;;;-1.50;99.90;;;;;;4423973;28;658704;-72
2023/03/06 00:09:20;;;;;;;24.02;9.27;;;-1.60;99.90;;;;;;4403779;28;658601;-72
2023/03/06 00:12:08;;;;;;;21.97;9.67;;;-1.60;99.90;;;;;;4427282;28;658440;-72
2023/03/06 00:14:55;;;;;;;22.10;9.47;;;-1.60;99.90;;;;;;4400792;28;658417;-72
2023/03/06 00:17:44;;;;;;;20.87;9.93;;;-1.70;99.90;;;;;;4419385;28;660392;-72
2023/03/06 00:20:31;;;;;;;19.33;9.73;;;-1.70;99.90;;;;;;4402459;28;660029;-72
2023/03/06 00:23:19;;;;;;;24.60;10.93;;;-1.70;99.90;;;;;;4420925;28;658619;-72
2023/03/06 00:26:07;;;;;;;23.77;9.90;;;-1.70;99.90;;;;;;4401192;28;659894;-72
2023/03/06 00:28:54;;;;;;;24.07;10.73;;;-1.60;99.90;;;;;;4430398;28;658945;-72
2023/03/06 00:31:45;;;;;;;23.93;11.47;;;-1.70;99.90;;;;;;4408293;28;659929;-72
2023/03/06 00:34:33;;;;;;;24.47;11.07;;;-1.80;99.90;;;;;;4399084;28;660872;-72
2023/03/06 00:37:21;;;;;;;27.37;11.90;;;-1.80;99.90;;;;;;4399785;28;659826;-72
2023/03/06 00:40:09;;;;;;;23.93;11.10;;;-1.90;99.90;;;;;;4420727;28;660550;-72
2023/03/06 00:42:56;;;;;;;27.33;12.40;;;-1.80;99.90;;;;;;4402111;28;659850;-72
2023/03/06 00:45:44;;;;;;;27.23;12.40;;;-1.90;99.90;;;;;;4419787;28;659978;-72
2023/03/06 00:48:31;;;;;;;31.70;12.98;;;-1.90;99.90;;;;;;4399089;28;659973;-72
2023/03/06 00:51:20;;;;;;;29.60;14.10;;;-1.80;99.90;;;;;;4423640;28;661083;-72
2023/03/06 00:54:08;;;;;;;35.77;15.03;;;-1.80;99.90;;;;;;4403799;28;660094;-72
2023/03/06 00:56:55;;;;;;;33.53;14.30;;;-1.80;99.90;;;;;;4412173;28;660431;-72
2023/03/06 00:59:43;;;;;;;32.70;15.20;;;-1.80;99.90;;;;;;4423111;28;659677;-73
2023/03/06 01:02:30;;;;;;;32.70;15.73;;;-1.90;99.90;;;;;;4412399;28;659836;-72
2023/03/06 01:05:17;;;;;;;38.47;16.40;;;-1.90;99.90;;;;;;4419798;28;660654;-72
2023/03/06 01:08:07;;;;;;;36.40;16.27;;;-1.80;99.90;;;;;;4417359;28;659705;-72
2023/03/06 01:10:54;;;;;;;37.17;17.63;;;-1.90;99.90;;;;;;4417738;28;660436;-72
2023/03/06 01:13:43;;;;;;;44.90;17.67;;;-1.90;99.90;;;;;;4398521;28;659437;-72
2023/03/06 01:16:30;;;;;;;38.03;18.20;;;-2.00;99.90;;;;;;4418205;28;659825;-73
2023/03/06 01:19:18;;;;;;;47.30;19.07;;;-1.90;99.90;;;;;;4428356;28;659925;-72
2023/03/06 01:22:05;;;;;;;41.70;19.83;;;-1.90;99.90;;;;;;4416108;28;659805;-72
2023/03/06 01:24:54;;;;;;;42.73;20.20;;;-1.90;99.90;;;;;;4415539;28;660682;-72
2023/03/06 01:27:41;;;;;;;43.00;20.33;;;-1.90;99.90;;;;;;4402624;28;659560;-72
2023/03/06 01:30:29;;;;;;;41.10;19.90;;;-1.90;99.90;;;;;;4428531;28;659901;-73
2023/03/06 01:33:16;;;;;;;46.13;20.97;;;-1.80;99.90;;;;;;4401976;28;659353;-73
2023/03/06 01:36:04;;;;;;;44.93;19.57;;;-1.90;99.90;;;;;;4426686;28;659762;-72
2023/03/06 01:38:51;;;;;;;46.83;20.57;;;-1.80;99.90;;;;;;4398621;28;660225;-72
2023/03/06 01:41:40;;;;;;;46.30;21.03;;;-1.80;99.90;;;;;;4425870;28;660042;-72
2023/03/06 01:44:27;;;;;;;45.10;22.00;;;-1.80;99.90;;;;;;4398163;28;661145;-73
2023/03/06 01:47:14;;;;;;;44.77;20.53;;;-1.70;99.90;;;;;;4417571;28;659876;-72
2023/03/06 01:50:02;;;;;;;45.43;20.13;;;-1.70;99.90;;;;;;4399520;28;659667;-73
2023/03/06 01:52:50;;;;;;;39.27;18.27;;;-1.70;99.90;;;;;;4424254;28;659190;-73
2023/03/06 01:55:38;;;;;;;42.47;18.60;;;-1.70;99.90;;;;;;4399260;28;661186;-72
2023/03/06 01:58:27;;;;;;;39.57;17.87;;;-1.60;99.90;;;;;;4405320;28;660415;-73
2023/03/06 02:01:14;;;;;;;44.73;18.63;;;-1.70;99.90;;;;;;4423844;28;659535;-72
2023/03/06 02:04:01;;;;;;;40.42;17.75;;;-1.60;99.90;;;;;;4404509;28;660194;-72
2023/03/06 02:06:48;;;;;;;46.03;19.87;;;-1.60;99.90;;;;;;4420582;28;659957;-72
2023/03/06 02:09:36;;;;;;;45.60;17.77;;;-1.50;99.90;;;;;;4405751;28;659790;-72
2023/03/06 02:12:23;;;;;;;42.77;18.60;;;-1.60;99.90;;;;;;4423294;28;660761;-72
2023/03/06 02:15:12;;;;;;;43.30;18.50;;;-1.60;99.90;;;;;;4406870;28;660377;-72
2023/03/06 02:18:00;;;;;;;41.60;18.97;;;-1.60;99.90;;;;;;4421600;28;660152;-72
2023/03/06 02:20:50;;;;;;;47.70;21.70;;;-1.50;99.90;;;;;;4402251;28;660193;-72
2023/03/06 02:23:43;;;;;;;45.20;20.17;;;-1.60;99.90;;;;;;4401060;28;660703;-72
2023/03/06 02:26:32;;;;;;;53.27;21.37;;;-1.60;99.90;;;;;;4418918;28;659273;-72
2023/03/06 02:29:21;;;;;;;53.47;22.90;;;-1.50;99.90;;;;;;4421209;28;659170;-72
2023/03/06 02:32:09;;;;;;;67.90;24.40;;;-1.50;99.90;;;;;;4397215;28;659577;-72
2023/03/06 02:34:57;;;;;;;59.88;23.95;;;-1.40;99.90;;;;;;4405133;28;659796;-72
2023/03/06 02:37:44;;;;;;;66.13;25.67;;;-1.40;99.90;;;;;;4428327;28;659925;-73
2023/03/06 02:40:32;;;;;;;66.10;25.00;;;-1.40;99.90;;;;;;4404941;28;660003;-72
2023/03/06 02:43:23;;;;;;;65.93;25.83;;;-1.50;99.90;;;;;;4431802;28;659477;-72
2023/03/06 02:46:10;;;;;;;67.37;28.30;;;-1.50;99.90;;;;;;4395817;28;659929;-73
2023/03/06 02:48:57;;;;;;;61.90;26.47;;;-1.40;99.90;;;;;;4421482;28;659907;-72
2023/03/06 02:51:45;;;;;;;76.37;29.50;;;-1.30;99.90;;;;;;4422042;28;660321;-72
2023/03/06 02:54:32;;;;;;;67.93;27.17;;;-1.30;99.90;;;;;;4400249;28;660727;-72
2023/03/06 02:57:19;;;;;;;69.50;27.27;;;-1.30;99.90;;;;;;4424102;28;660137;-72
2023/03/06 03:00:09;;;;;;;77.30;31.13;;;-1.30;99.90;;;;;;4403585;28;660045;-72
2023/03/06 03:02:56;;;;;;;82.40;29.33;;;-1.30;99.90;;;;;;4400181;28;659527;-72
2023/03/06 03:05:43;;;;;;;85.37;32.63;;;-1.20;99.90;;;;;;4423861;28;660600;-72
2023/03/06 03:08:32;;;;;;;85.33;32.73;;;-1.20;99.90;;;;;;4406438;28;660937;-72
2023/03/06 03:11:19;;;;;;;88.72;32.42;;;-1.30;99.90;;;;;;4419305;28;660190;-72
2023/03/06 03:14:06;;;;;;;93.77;33.30;;;-1.20;99.90;;;;;;4403210;28;659658;-72
2023/03/06 03:16:55;;;;;;;92.80;33.33;;;-1.30;99.90;;;;;;4424275;28;659486;-72
2023/03/06 03:19:42;;;;;;;97.80;34.97;;;-1.30;99.90;;;;;;4405881;28;660178;-72
2023/03/06 03:22:30;;;;;;;97.10;34.23;;;-1.20;99.90;;;;;;4425590;28;660775;-72
2023/03/06 03:25:17;;;;;;;98.13;35.03;;;-1.20;99.90;;;;;;4407855;28;660586;-72
2023/03/06 03:28:04;;;;;;;99.10;36.43;;;-1.20;99.90;;;;;;4423255;28;659584;-73
2023/03/06 03:30:52;;;;;;;97.20;36.00;;;-1.20;99.90;;;;;;4404114;28;660385;-72
2023/03/06 03:33:40;;;;;;;103.37;36.93;;;-1.20;99.90;;;;;;4424790;28;659933;-73
2023/03/06 03:36:27;;;;;;;100.47;35.47;;;-1.30;99.90;;;;;;4402082;28;662478;-72
2023/03/06 03:39:15;;;;;;;97.57;36.83;;;-1.30;99.90;;;;;;4419046;28;661759;-72
2023/03/06 03:42:02;;;;;;;91.67;34.37;;;-1.30;99.90;;;;;;4381193;28;659869;-73
2023/03/06 03:44:50;;;;;;;108.47;37.43;;;-1.30;99.90;;;;;;4239128;28;659419;-73
2023/03/06 03:47:37;;;;;;;91.40;31.20;;;-1.20;99.90;;;;;;4252050;28;660676;-72
2023/03/06 03:50:27;;;;;;;101.13;35.53;;;-1.20;99.90;;;;;;4414218;28;659358;-72
2023/03/06 03:53:14;;;;;;;102.33;34.00;;;-1.20;99.90;;;;;;4418506;28;661419;-72
2023/03/06 03:56:02;;;;;;;118.05;38.03;;;-1.30;99.90;;;;;;4402740;28;662343;-73
2023/03/06 03:58:49;;;;;;;100.10;35.47;;;-1.30;99.90;;;;;;4424808;28;661283;-72
2023/03/06 04:01:37;;;;;;;102.83;37.23;;;-1.20;99.90;;;;;;4407037;28;660915;-72
2023/03/06 04:04:24;;;;;;;103.13;35.97;;;-1.20;99.90;;;;;;4426644;28;660084;-73
2023/03/06 04:07:13;;;;;;;81.87;30.23;;;-1.30;99.90;;;;;;4397077;28;660740;-72
2023/03/06 04:10:00;;;;;;;101.75;36.13;;;-1.20;99.90;;;;;;4407436;28;659864;-72
2023/03/06 04:12:47;;;;;;;93.83;35.57;;;-1.20;99.90;;;;;;4423065;28;661288;-73
2023/03/06 04:15:35;;;;;;;96.40;35.80;;;-1.10;99.90;;;;;;4420049;28;659610;-73
2023/03/06 04:18:23;;;;;;;94.63;33.33;;;-1.20;99.90;;;;;;4421613;28;660325;-73
2023/03/06 04:21:10;;;;;;;94.57;33.07;;;-1.20;99.90;;;;;;4412440;28;659570;-73
2023/03/06 04:23:59;;;;;;;89.63;33.50;;;-1.20;99.90;;;;;;4424499;28;659630;-72
2023/03/06 04:26:46;;;;;;;91.93;34.33;;;-1.30;99.90;;;;;;4411354;28;660026;-72
2023/03/06 04:29:33;;;;;;;91.67;33.37;;;-1.20;99.90;;;;;;4428198;28;661641;-73
2023/03/06 04:32:20;;;;;;;87.17;33.33;;;-1.20;99.90;;;;;;4404353;28;659803;-72
2023/03/06 04:35:08;;;;;;;87.00;32.33;;;-1.20;99.90;;;;;;4421659;28;660577;-73
2023/03/06 04:37:56;;;;;;;84.40;32.43;;;-1.30;99.90;;;;;;4404656;28;659916;-72
2023/03/06 04:40:45;;;;;;;84.57;31.50;;;-1.30;99.90;;;;;;4423587;28;660246;-73
2023/03/06 04:43:32;;;;;;;83.00;31.57;;;-1.30;99.90;;;;;;4398732;28;660056;-73
2023/03/06 04:46:19;;;;;;;85.80;31.83;;;-1.20;99.90;;;;;;4424051;28;659600;-72
2023/03/06 04:49:06;;;;;;;83.40;32.60;;;-1.20;99.90;;;;;;4399386;28;660025;-73
2023/03/06 04:51:53;;;;;;;79.57;32.07;;;-1.30;99.90;;;;;;4424436;28;660854;-72
2023/03/06 04:54:41;;;;;;;81.20;30.77;;;-1.30;99.90;;;;;;4405368;28;659932;-73
2023/03/06 04:57:30;;;;;;;70.53;27.33;;;-1.30;99.90;;;;;;4425451;28;660563;-72
2023/03/06 05:00:19;;;;;;;71.03;27.73;;;-1.40;99.90;;;;;;4399369;28;660348;-73
2023/03/06 05:03:06;;;;;;;68.77;26.40;;;-1.50;99.90;;;;;;4404350;28;660121;-73
2023/03/06 05:05:53;;;;;;;69.60;26.20;;;-1.60;99.90;;;;;;4428894;28;659625;-73
2023/03/06 05:08:40;;;;;;;66.78;25.08;;;-1.60;99.90;;;;;;4411006;28;659831;-72
2023/03/06 05:11:27;;;;;;;61.53;24.87;;;-1.60;99.90;;;;;;4416591;28;660879;-72
2023/03/06 05:14:17;;;;;;;61.57;24.43;;;-1.60;99.90;;;;;;4426778;28;660153;-73
2023/03/06 05:17:04;;;;;;;57.93;24.50;;;-1.60;99.90;;;;;;4422438;28;659362;-73
2023/03/06 05:19:51;;;;;;;54.40;21.77;;;-1.60;99.90;;;;;;4402183;28;659632;-73
2023/03/06 05:22:38;;;;;;;61.60;23.87;;;-1.60;99.90;;;;;;4425249;28;659950;-72
2023/03/06 05:25:26;;;;;;;55.63;21.80;;;-1.60;99.90;;;;;;4410696;28;659893;-73
2023/03/06 05:28:13;;;;;;;52.23;22.17;;;-1.50;99.90;;;;;;4426988;28;661110;-73
2023/03/06 05:31:02;;;;;;;55.40;23.77;;;-1.50;99.90;;;;;;4408529;28;659971;-73
2023/03/06 05:33:49;;;;;;;52.83;21.70;;;-1.50;99.90;;;;;;4423576;28;659682;-73
2023/03/06 05:36:36;;;;;;;61.20;23.27;;;-1.50;99.90;;;;;;4406286;28;659919;-73
2023/03/06 05:39:23;;;;;;;57.93;22.53;;;-1.50;99.90;;;;;;4430322;28;659298;-73
2023/03/06 05:42:10;;;;;;;59.07;25.40;;;-1.40;99.90;;;;;;4404885;28;660098;-73
2023/03/06 05:44:58;;;;;;;55.73;23.37;;;-1.30;99.90;;;;;;4426096;28;661073;-73
2023/03/06 05:47:47;;;;;;;56.77;24.60;;;-1.20;99.90;;;;;;4418440;28;659702;-73
2023/03/06 05:50:34;;;;;;;64.27;26.53;;;-1.20;99.90;;;;;;4435722;28;659921;-73
2023/03/06 05:53:21;;;;;;;51.17;22.33;;;-1.10;99.90;;;;;;4404792;28;660237;-73
2023/03/06 05:56:08;;;;;;;54.53;22.10;;;-0.90;99.90;;;;;;4426865;28;660014;-73
2023/03/06 05:58:56;;;;;;;52.57;21.40;;;-0.90;99.90;;;;;;4405616;28;659156;-72
2023/03/06 06:01:44;;;;;;;57.30;23.30;;;-0.80;99.90;;;;;;4436638;28;660054;-73
2023/03/06 06:04:32;;;;;;;58.20;25.10;;;-0.80;99.90;;;;;;4404427;28;659950;-73
2023/03/06 06:07:20;;;;;;;57.93;25.83;;;-0.70;99.90;;;;;;4422614;28;659391;-73
2023/03/06 06:10:07;;;;;;;60.77;26.67;;;-0.60;99.90;;;;;;4404349;28;660770;-72
2023/03/06 06:12:55;;;;;;;59.63;25.30;;;-0.50;99.90;;;;;;4421214;28;660080;-72
2023/03/06 06:15:42;;;;;;;58.73;26.73;;;-0.30;99.90;;;;;;4430313;28;660849;-73
2023/03/06 06:18:30;;;;;;;57.40;25.83;;;-0.20;99.90;;;;;;4429839;28;660710;-73
2023/03/06 06:21:19;;;;;;;55.73;24.60;;;0.00;99.90;;;;;;4422563;28;660333;-72
2023/03/06 06:24:06;;;;;;;54.83;24.23;;;0.10;99.90;;;;;;4400897;28;659164;-72
2023/03/06 06:26:55;;;;;;;52.93;24.93;;;0.30;99.90;;;;;;4422604;28;658880;-71
2023/03/06 06:29:42;;;;;;;57.00;24.57;;;0.30;99.90;;;;;;4402293;28;659685;-72
2023/03/06 06:32:29;;;;;;;64.10;26.57;;;0.40;99.90;;;;;;4433177;28;658434;-71
2023/03/06 06:35:16;;;;;;;56.37;24.43;;;0.30;99.90;;;;;;4412239;28;658634;-71
2023/03/06 06:38:05;;;;;;;52.27;22.93;;;0.40;99.90;;;;;;4431665;28;659542;-71
2023/03/06 06:40:52;;;;;;;58.15;26.52;;;0.40;99.90;;;;;;4400484;28;659513;-71
2023/03/06 06:43:39;;;;;;;60.50;26.40;;;0.00;99.90;;;;;;4428654;28;657904;-71
2023/03/06 06:46:27;;;;;;;57.00;26.77;;;0.10;99.90;;;;;;4396002;28;658759;-71
2023/03/06 06:49:14;;;;;;;60.03;26.50;;;0.30;99.90;;;;;;4423414;28;659219;-71
2023/03/06 06:52:02;;;;;;;57.23;23.87;;;0.40;99.90;;;;;;4404512;28;658428;-71
2023/03/06 06:54:50;;;;;;;52.87;24.63;;;0.50;99.90;;;;;;4430867;28;658236;-71
2023/03/06 06:57:37;;;;;;;50.40;22.90;;;0.50;99.90;;;;;;4406980;28;659303;-71
2023/03/06 07:00:25;;;;;;;50.47;24.10;;;0.50;99.90;;;;;;4419537;28;658634;-71
2023/03/06 07:03:13;;;;;;;56.07;23.20;;;0.20;99.90;;;;;;4422524;28;659281;-71
2023/03/06 07:06:00;;;;;;;50.15;23.08;;;0.40;99.90;;;;;;4410564;28;658971;-71
2023/03/06 07:08:47;;;;;;;53.17;24.67;;;0.30;99.90;;;;;;4421170;28;659562;-71
2023/03/06 07:11:37;;;;;;;56.17;25.30;;;0.30;99.90;;;;;;4419993;28;659078;-71
2023/03/06 07:14:24;;;;;;;53.40;24.07;;;0.30;99.90;;;;;;4431767;28;658390;-71
2023/03/06 07:17:11;;;;;;;54.47;24.97;;;0.50;99.90;;;;;;4403653;28;658748;-71
2023/03/06 07:19:58;;;;;;;52.30;24.65;;;0.60;99.90;;;;;;4416631;28;659637;-69
2023/03/06 07:22:46;;;;;;;52.30;23.13;;;0.60;99.90;;;;;;4397315;28;658841;-72
2023/03/06 07:25:33;;;;;;;56.20;24.53;;;0.70;99.90;;;;;;4426172;28;658984;-70
2023/03/06 07:28:22;;;;;;;56.63;23.23;;;0.80;99.90;;;;;;4405208;28;658878;-71
2023/03/06 07:31:10;;;;;;;53.97;24.25;;;0.90;99.90;;;;;;4425820;28;658892;-70
2023/03/06 07:33:57;;;;;;;51.90;21.97;;;1.00;99.90;;;;;;4406727;28;659951;-71
2023/03/06 07:36:44;;;;;;;56.30;23.63;;;1.00;99.90;;;;;;4422601;28;659774;-71
2023/03/06 07:39:32;;;;;;;50.40;22.20;;;1.10;99.90;;;;;;4405759;28;659757;-71
2023/03/06 07:42:19;;;;;;;53.47;20.30;;;1.00;99.90;;;;;;4423493;28;658749;-70
2023/03/06 07:45:08;;;;;;;51.23;21.07;;;1.00;99.90;;;;;;4397540;28;658560;-72
2023/03/06 07:47:56;;;;;;;49.80;21.73;;;1.00;99.90;;;;;;4401375;28;658668;-70
2023/03/06 07:50:43;;;;;;;41.60;17.60;;;1.00;99.90;;;;;;4423578;28;659731;-70
2023/03/06 07:53:30;;;;;;;38.30;17.33;;;0.80;99.90;;;;;;4404764;28;659209;-70
2023/03/06 07:56:17;;;;;;;48.43;20.47;;;1.10;99.90;;;;;;4427212;28;658424;-71
2023/03/06 07:59:05;;;;;;;40.57;18.70;;;1.30;99.90;;;;;;4421956;28;658541;-70
2023/03/06 08:01:56;;;;;;;49.23;19.60;;;1.50;99.90;;;;;;4430377;28;658972;-70
2023/03/06 08:04:43;;;;;;;34.10;16.93;;;1.40;99.90;;;;;;4400899;28;659199;-70
2023/03/06 08:07:30;;;;;;;42.47;20.43;;;1.80;99.90;;;;;;4403879;28;658976;-71
2023/03/06 08:10:18;;;;;;;42.50;18.63;;;2.00;99.90;;;;;;4423453;28;659861;-70
2023/03/06 08:13:05;;;;;;;37.63;18.23;;;2.10;99.90;;;;;;4412051;28;659401;-70
2023/03/06 08:15:53;;;;;;;37.47;18.67;;;2.60;99.90;;;;;;4423817;28;659572;-71
2023/03/06 08:18:42;;;;;;;37.37;18.33;;;2.30;99.90;;;;;;4416774;28;658775;-70
2023/03/06 08:21:29;;;;;;;40.00;18.37;;;2.70;99.90;;;;;;4427195;28;659071;-70
2023/03/06 08:24:17;;;;;;;36.77;17.97;;;2.70;99.90;;;;;;4401195;28;658897;-72
2023/03/06 08:27:04;;;;;;;36.05;18.30;;;2.70;99.90;;;;;;4421930;28;659499;-70
2023/03/06 08:29:51;;;;;;;41.07;20.13;;;3.10;99.90;;;;;;4407918;28;658435;-70
2023/03/06 08:32:39;;;;;;;39.57;18.63;;;3.10;99.90;;;;;;4423655;28;658970;-70
2023/03/06 08:35:27;;;;;;;37.40;16.33;;;2.90;99.90;;;;;;4408736;28;659331;-71
2023/03/06 08:38:15;;;;;;;36.67;16.53;;;2.40;99.90;;;;;;4425579;28;658942;-68
2023/03/06 08:41:02;;;;;;;36.57;17.00;;;2.60;99.90;;;;;;4403219;28;659583;-70
2023/03/06 08:43:49;;;;;;;31.53;15.10;;;3.00;99.90;;;;;;4416678;28;658852;-69
2023/03/06 08:46:37;;;;;;;31.57;16.40;;;3.50;99.90;;;;;;4391589;28;658711;-71
2023/03/06 08:49:24;;;;;;;32.43;14.47;;;3.20;99.90;;;;;;4421520;28;658591;-70
2023/03/06 08:52:13;;;;;;;32.73;14.77;;;3.50;99.90;;;;;;4415348;28;659191;-71
2023/03/06 08:55:02;;;;;;;28.13;14.03;;;3.10;99.90;;;;;;4410051;28;658420;-70
2023/03/06 08:57:49;;;;;;;27.07;13.17;;;3.80;99.90;;;;;;4420919;28;658170;-70
2023/03/06 09:00:36;;;;;;;27.33;12.67;;;4.00;99.90;;;;;;4401087;28;659151;-70
2023/03/06 09:03:24;;;;;;;22.83;10.17;;;4.30;99.90;;;;;;4425261;28;659119;-70
2023/03/06 09:06:11;;;;;;;19.63;9.67;;;4.20;99.90;;;;;;4402707;28;658918;-71
2023/03/06 09:08:59;;;;;;;20.10;10.33;;;4.10;99.90;;;;;;4425296;28;659126;-69
2023/03/06 09:11:47;;;;;;;18.30;9.53;;;3.90;99.90;;;;;;4409041;28;658819;-71
2023/03/06 09:14:34;;;;;;;17.63;7.50;;;3.80;99.90;;;;;;4429656;28;658159;-70
2023/03/06 09:17:21;;;;;;;18.13;8.20;;;3.90;99.90;;;;;;4401823;28;657406;-70
2023/03/06 09:20:09;;;;;;;14.57;7.47;;;4.00;99.90;;;;;;4424351;28;658025;-69
2023/03/06 09:22:57;;;;;;;18.10;8.40;;;3.80;99.90;;;;;;4398935;28;657911;-69
2023/03/06 09:25:46;;;;;;;15.80;8.43;;;3.70;99.90;;;;;;4426666;28;657900;-70
2023/03/06 09:28:34;;;;;;;14.43;7.00;;;3.60;99.90;;;;;;4400767;28;657892;-69
2023/03/06 09:31:22;;;;;;;18.93;9.87;;;3.60;99.90;;;;;;4406170;28;658470;-69
2023/03/06 09:34:09;;;;;;;15.63;8.03;;;3.80;99.90;;;;;;4426409;28;657779;-69
2023/03/06 09:36:56;;;;;;;17.43;8.50;;;3.80;99.90;;;;;;4406641;28;657341;-70
2023/03/06 09:39:43;;;;;;;21.60;8.97;;;4.30;99.90;;;;;;4427516;28;658148;-70
2023/03/06 09:42:32;;;;;;;19.67;9.70;;;4.40;99.90;;;;;;4267640;28;657658;-71
2023/03/06 09:45:20;;;;;;;19.43;9.07;;;4.70;99.90;;;;;;4245550;28;657130;-72
2023/03/06 09:48:08;;;;;;;22.13;7.63;;;5.10;99.90;;;;;;4297788;28;657591;-70
2023/03/06 09:50:58;;;;;;;16.33;8.23;;;4.80;99.90;;;;;;4414492;28;657902;-70
2023/03/06 09:53:56;;;;;;;17.17;8.00;;;5.20;99.90;;;;;;4407823;28;657406;-70
2023/03/06 09:56:46;;;;;;;13.73;6.27;;;5.60;99.90;;;;;;4400526;28;657592;-70
2023/03/06 09:59:34;;;;;;;12.87;7.10;;;5.50;99.90;;;;;;4399039;28;657967;-69
2023/03/06 10:02:25;;;;;;;15.60;8.23;;;4.40;99.90;;;;;;4403453;28;657778;-71
2023/03/06 10:05:13;;;;;;;18.80;8.50;;;4.80;99.90;;;;;;4400337;28;657965;-70
2023/03/06 10:08:01;;;;;;;13.87;8.00;;;4.70;99.90;;;;;;4402592;28;657671;-70
2023/03/06 10:10:50;;;;;;;13.90;7.07;;;5.10;99.90;;;;;;4421482;28;657697;-69
2023/03/06 10:13:39;;;;;;;14.03;7.03;;;4.80;99.90;;;;;;4405448;28;658227;-69
2023/03/06 10:16:28;;;;;;;14.93;6.47;;;4.90;99.90;;;;;;4409716;28;657388;-71
2023/03/06 10:19:17;;;;;;;13.00;6.80;;;5.10;99.90;;;;;;4397138;28;657737;-71
2023/03/06 10:22:06;;;;;;;14.73;7.47;;;5.10;99.90;;;;;;4425344;28;657593;-70
2023/03/06 10:24:54;;;;;;;11.00;5.57;;;5.40;99.90;;;;;;4402225;28;658630;-71
2023/03/06 10:27:44;;;;;;;12.67;5.73;;;5.50;99.90;;;;;;4403860;28;657578;-71
2023/03/06 10:30:38;;;;;;;10.90;5.67;;;5.50;97.80;;;;;;4407993;28;658350;-72
2023/03/06 10:33:33;;;;;;;11.40;5.37;;;5.50;99.90;;;;;;4407280;28;657179;-73
2023/03/06 10:36:21;;;;;;;13.23;6.83;;;5.70;97.00;;;;;;4381277;28;657682;-71
2023/03/06 10:39:12;;;;;;;9.53;5.33;;;5.90;97.70;;;;;;4430278;28;659270;-71
2023/03/06 10:42:00;;;;;;;9.50;5.00;;;5.80;96.70;;;;;;4404331;28;657018;-71
2023/03/06 10:44:47;;;;;;;8.67;3.70;;;6.20;95.10;;;;;;4410373;28;657078;-71
2023/03/06 10:47:35;;;;;;;21.80;7.67;;;5.80;94.40;;;;;;4438028;28;655905;-71
2023/03/06 10:50:25;;;;;;;9.40;4.40;;;5.80;96.70;;;;;;4402621;28;657971;-70
2023/03/06 10:53:20;;;;;;;8.90;4.53;;;6.30;94.20;;;;;;4401437;28;656952;-69
2023/03/06 10:56:07;;;;;;;15.30;5.00;;;5.50;90.00;;;;;;4406830;28;657040;-70
2023/03/06 10:59:05;;;;;;;8.20;3.13;;;6.00;93.90;;;;;;4423081;28;658090;-69
2023/03/06 11:01:53;;;;;;;6.53;3.57;;;6.40;84.70;;;;;;4376839;28;656880;-71
2023/03/06 11:04:41;;;;;;;7.97;3.63;;;6.30;90.00;;;;;;4411226;28;656447;-71
2023/03/06 11:07:29;;;;;;;6.00;2.90;;;6.90;89.60;;;;;;4427905;28;657338;-74
2023/03/06 11:10:18;;;;;;;5.20;2.60;;;6.10;82.50;;;;;;4406018;28;657596;-70
2023/03/06 11:13:06;;;;;;;6.17;3.67;;;5.70;79.50;;;;;;4421041;28;656480;-71
2023/03/06 11:15:58;;;;;;;5.37;3.07;;;5.70;87.00;;;;;;4433023;28;657915;-71
2023/03/06 11:18:55;;;;;;;5.67;2.97;;;5.90;80.90;;;;;;4388568;28;657138;-72
2023/03/06 11:21:43;;;;;;;4.13;2.40;;;6.00;82.30;;;;;;4383867;28;656853;-73
2023/03/06 11:24:35;;;;;;;4.73;1.77;;;5.70;80.60;;;;;;4421251;28;657145;-72
2023/03/06 11:27:25;;;;;;;5.13;2.70;;;6.20;80.50;;;;;;4404532;28;657155;-71
2023/03/06 11:30:16;;;;;;;4.33;2.80;;;6.30;80.80;;;;;;4404225;28;658030;-70
2023/03/06 11:33:05;;;;;;;8.97;3.20;;;6.50;77.30;;;;;;4402706;28;657778;-70
2023/03/06 11:35:56;;;;;;;5.83;2.80;;;5.60;81.70;;;;;;4403859;28;657475;-70
2023/03/06 11:38:46;;;;;;;6.83;4.27;;;5.60;80.30;;;;;;4407635;28;657945;-70
2023/03/06 11:41:50;;;;;;;8.07;4.00;;;5.70;79.60;;;;;;4411987;28;657005;-70
2023/03/06 11:44:45;;;;;;;7.93;4.13;;;6.10;83.90;;;;;;4407181;28;657523;-70
2023/03/06 11:47:33;;;;;;;7.20;4.10;;;6.30;81.20;;;;;;4414175;28;657030;-70
2023/03/06 11:50:23;;;;;;;10.37;3.70;;;6.30;81.40;;;;;;4402580;28;657556;-70
2023/03/06 11:53:11;;;;;;;10.23;3.57;;;6.40;79.10;;;;;;4414871;28;657494;-71
2023/03/06 11:56:00;;;;;;;8.23;4.63;;;6.10;84.30;;;;;;4435437;28;658219;-71
2023/03/06 11:58:56;;;;;;;8.20;3.97;;;6.20;83.00;;;;;;4399910;28;657746;-70
2023/03/06 12:01:46;;;;;;;11.30;4.07;;;6.20;82.00;;;;;;4405278;28;656917;-72
2023/03/06 12:04:47;;;;;;;8.17;4.30;;;6.10;80.60;;;;;;4400023;28;657843;-71
2023/03/06 12:07:36;;;;;;;7.83;4.20;;;5.50;82.00;;;;;;4417736;28;656886;-72
2023/03/06 12:10:24;;;;;;;9.73;4.70;;;5.30;86.80;;;;;;4429247;28;657186;-73
2023/03/06 12:13:36;;;;;;;9.23;3.97;;;5.70;88.60;;;;;;4402773;28;656860;-69
2023/03/06 12:16:39;;;;;;;7.53;3.70;;;6.00;83.50;;;;;;4382489;28;657125;-69
2023/03/06 12:19:33;;;;;;;7.60;3.93;;;5.70;81.90;;;;;;4405208;28;657011;-69
2023/03/06 12:22:43;;;;;;;8.10;3.83;;;5.50;82.50;;;;;;4416575;28;657048;-69
2023/03/06 12:25:33;;;;;;;9.17;4.00;;;5.10;84.70;;;;;;4393225;28;656625;-69
2023/03/06 12:28:38;;;;;;;9.20;4.13;;;4.80;84.60;;;;;;4414946;28;656734;-72
2023/03/06 12:31:50;;;;;;;6.60;3.75;;;4.80;90.60;;;;;;4403330;28;656762;-72
2023/03/06 12:34:45;;;;;;;10.70;4.63;;;4.90;88.60;;;;;;4384974;28;657253;-72
2023/03/06 12:37:39;;;;;;;9.27;4.90;;;5.30;90.80;;;;;;4382644;28;658254;-72
2023/03/06 12:40:36;;;;;;;14.17;5.10;;;5.30;87.90;;;;;;4381696;28;656809;-71
2023/03/06 12:43:54;;;;;;;10.13;4.87;;;5.30;88.30;;;;;;4402232;28;657805;-72
2023/03/06 12:46:42;;;;;;;10.43;5.00;;;5.30;88.80;;;;;;4383648;28;657757;-72
2023/03/06 12:49:37;;;;;;;8.77;4.60;;;5.20;89.10;;;;;;4427645;28;657155;-72
2023/03/06 12:52:26;;;;;;;9.93;5.05;;;5.10;90.70;;;;;;4403402;28;656633;-72
2023/03/06 12:55:14;;;;;;;9.87;4.57;;;4.90;90.40;;;;;;4404811;28;657084;-72
2023/03/06 12:58:34;;;;;;;11.73;5.70;;;4.80;91.10;;;;;;4402651;28;656132;-72
2023/03/06 13:01:41;;;;;;;11.13;5.00;;;4.70;92.00;;;;;;4400823;28;657458;-72
2023/03/06 13:04:48;;;;;;;9.30;4.60;;;4.60;91.50;;;;;;4403183;28;658028;-72
2023/03/06 13:07:47;;;;;;;8.90;4.50;;;4.60;92.60;;;;;;4388337;28;656838;-72
2023/03/06 13:10:35;;;;;;;7.10;4.07;;;4.70;92.80;;;;;;4401644;28;656715;-72
2023/03/06 13:13:30;;;;;;;10.80;4.33;;;4.60;91.70;;;;;;4406278;28;657397;-72
2023/03/06 13:16:22;;;;;;;7.20;3.60;;;4.80;91.90;;;;;;4377844;28;657774;-72
2023/03/06 13:19:11;;;;;;;9.50;3.87;;;4.70;91.70;;;;;;4397797;28;657033;-72
2023/03/06 13:22:03;;;;;;;7.47;3.47;;;4.50;88.80;;;;;;4401968;28;657570;-71
2023/03/06 13:25:26;;;;;;;7.93;4.03;;;4.30;90.70;;;;;;4385595;28;656785;-72
2023/03/06 13:28:23;;;;;;;7.17;3.00;;;4.10;90.80;;;;;;4389877;28;658015;-71
2023/03/06 13:31:11;;;;;;;5.97;3.23;;;4.10;93.90;;;;;;4369343;28;656893;-73
2023/03/06 13:33:58;;;;;;;11.13;3.57;;;3.80;96.70;;;;;;4430195;28;657926;-75
2023/03/06 13:36:46;;;;;;;8.50;3.90;;;3.60;99.90;;;;;;4407138;28;657823;-76
2023/03/06 13:40:01;;;;;;;7.17;3.30;;;3.40;99.90;;;;;;4424709;28;657739;-72
2023/03/06 13:43:18;;;;;;;6.50;3.40;;;3.30;99.90;;;;;;4406362;28;657890;-72
2023/03/06 13:46:15;;;;;;;4.90;2.70;;;3.20;99.90;;;;;;4375436;28;657129;-73
2023/03/06 13:49:11;;;;;;;8.40;3.87;;;3.10;99.90;;;;;;4381352;28;656887;-72
2023/03/06 13:52:06;;;;;;;8.43;3.80;;;2.90;99.90;;;;;;4403420;28;656899;-72
2023/03/06 13:54:56;;;;;;;9.32;4.82;;;2.40;99.90;;;;;;4407551;28;656866;-72
2023/03/06 13:57:52;;;;;;;8.05;4.18;;;2.40;99.90;;;;;;4402574;28;657238;-71
2023/03/06 14:00:55;;;;;;;6.93;2.93;;;2.50;99.90;;;;;;4394944;28;656270;-72
2023/03/06 14:04:06;;;;;;;8.17;4.90;;;2.60;99.90;;;;;;4393942;28;656268;-71
2023/03/06 14:07:02;;;;;;;10.07;4.70;;;2.60;99.90;;;;;;4401173;28;657236;-72
2023/03/06 14:09:58;;;;;;;8.20;4.90;;;2.70;99.90;;;;;;4409312;28;657687;-72
2023/03/06 14:12:59;;;;;;;8.83;4.10;;;2.60;99.90;;;;;;4390527;28;656300;-72
2023/03/06 14:15:47;;;;;;;8.10;4.30;;;2.70;99.90;;;;;;4408468;28;656733;-72
2023/03/06 14:18:38;;;;;;;10.67;4.50;;;2.90;99.90;;;;;;4421556;28;657258;-72
2023/03/06 14:21:29;;;;;;;6.90;3.70;;;3.50;99.90;;;;;;4419474;28;657752;-72